Walther Herwig III — DBFR — position and weather

sailwx.info

Track history (hours):
 
Tides and Currents Weather Stations Pressure Air Temp Water Temp Dewpoint Dewpoint Depression Visibility Wind Speed Wind Dir Waves Ship Positions

Oceanographic research ship Walther Herwig III (Germany)

Detailed information on ship capabilities available from University of Delaware's Ocean Information Center.

Last reported at 2017-Feb-22 16:25 UTC. Time now 2017-Feb-22 17:25 UTC.
Position N 53°31' E 008°35'.

Length 63.2 m; beam 14.8 m; draft 5.5 m.

Type: Fishing. MMSI: 211215500.

Date/timePositionNaut miles runAvg speedWind from/ knotsBaromVisibWave heightAir tempDewpointWater temp
2017-Feb-22 16:25N 53°31' E 008°35'2 3.7
2017-Feb-22 16:00N 53°30' E 008°36'2 2.8 270 / 14998.8 7.5 1.3 3.6
2017-Feb-22 15:25N 53°31' E 008°35'2 3.7
2017-Feb-22 15:00N 53°30' E 008°36'2 3.0 270 / 12998.7 7.6 1.1 3.7
2017-Feb-22 14:28N 53°31' E 008°35'2 3.3
2017-Feb-22 14:00N 53°30' E 008°36'2 2.4 270 / 12999.0 8.0 1.3 3.6
2017-Feb-22 13:19N 53°31' E 008°35'2 4.8
2017-Feb-22 13:00N 53°30' E 008°36'2 3.4 270 / 12999.3 8.5 2.7 3.4
2017-Feb-22 12:31N 53°31' E 008°35'2 3.0
2017-Feb-22 12:00N 53°30' E 008°36'2 3.0 260 / 12999.7 8.2 3.3 3.3
2017-Feb-22 11:28N 53°31' E 008°35'2 3.3
2017-Feb-22 11:00N 53°30' E 008°36'2 2.6 270 / 14999.6 8.3 2.5 3.4
2017-Feb-22 10:22N 53°31' E 008°35'2 4.2
2017-Feb-22 10:00N 53°30' E 008°36'2 3.4 270 / 16999.1 8.6 3.9 3.2
2017-Feb-22 09:31N 53°31' E 008°35'2 3.0
2017-Feb-22 09:00N 53°30' E 008°36'2 3.4 260 / 14998.3 8.5 5.5 3.1
2017-Feb-22 08:31N 53°31' E 008°35'2 3.0
2017-Feb-22 08:00N 53°30' E 008°36'2 2.4 260 / 16998.1 8.6 7.8 3.0
2017-Feb-22 07:19N 53°31' E 008°35'2 4.8
2017-Feb-22 07:00N 53°30' E 008°36'2 3.4 250 / 16997.9 8.4 7.3 3.2
2017-Feb-22 06:31N 53°31' E 008°35'2 3.0
2017-Feb-22 06:00N 53°30' E 008°36'2 3.4 240 / 16997.9 8.6 7.4 3.3
2017-Feb-22 05:31N 53°31' E 008°35'2 3.0
2017-Feb-22 05:00N 53°30' E 008°36'2 3.4 240 / 17998.3 8.8 7.4 3.3
2017-Feb-22 04:31N 53°31' E 008°35'2 3.0
2017-Feb-22 04:00N 53°30' E 008°36'2 2.6 240 / 17998.9 9.0 7.6 3.2
2017-Feb-22 03:22N 53°31' E 008°35'2 4.2
2017-Feb-22 03:00N 53°30' E 008°36'2 3.4 240 / 16999.6 9.2 8.4 3.5
2017-Feb-22 02:31N 53°31' E 008°35'2 3.0
2017-Feb-22 02:00N 53°30' E 008°36'2 3.4 220 / 161000.8 8.8 7.9 3.5
2017-Feb-22 01:31N 53°31' E 008°35'2 3.0
2017-Feb-22 01:00N 53°30' E 008°36'2 2.4 210 / 141002.3 7.6 6.8 3.4
2017-Feb-22 00:19N 53°31' E 008°35'2 4.8
2017-Feb-22 00:00N 53°30' E 008°36'2 3.4 210 / 101004.2 6.6 4.7 3.2
2017-Feb-21 23:31N 53°31' E 008°35'2 3.0
2017-Feb-21 23:00N 53°30' E 008°36'2 3.4 190 / 101006.0 6.0 3.2 3.2
2017-Feb-21 22:31N 53°31' E 008°35'2 3.0
2017-Feb-21 22:00N 53°30' E 008°36'2 2.8 210 / 101007.8 5.8 3.2 3.2
2017-Feb-21 21:25N 53°31' E 008°35'2 3.7
2017-Feb-21 21:00N 53°30' E 008°36'2 3.4 210 / 101009.0 5.6 2.9 3.3
2017-Feb-21 20:31N 53°31' E 008°35'2 3.0
2017-Feb-21 20:00N 53°30' E 008°36'2 3.0 220 / 81009.8 4.8 2.9 3.2
2017-Feb-21 19:28N 53°31' E 008°35'2 3.3
2017-Feb-21 19:00N 53°30' E 008°36'2 1.9 230 / 61010.5 5.3 3.3 3.4
2017-Feb-21 18:10N 53°31' E 008°35'2 8.9
2017-Feb-21 18:00N 53°30' E 008°36'2 3.4 250 / 81011.2 6.1 3.0 3.3
2017-Feb-21 17:31N 53°31' E 008°35'2 3.0
2017-Feb-21 17:00N 53°30' E 008°36'2 3.0 260 / 81011.3 6.5 2.8 3.2
2017-Feb-21 16:28N 53°31' E 008°35'2 3.3
2017-Feb-21 16:00N 53°30' E 008°36'2 3.4 280 / 61011.6 7.8 2.5 3.1
2017-Feb-21 15:31N 53°31' E 008°35'2 3.0
2017-Feb-21 15:00N 53°30' E 008°36'2 3.4 280 / 101011.5 8.1 2.0 3.1
2017-Feb-21 14:31N 53°31' E 008°35'2 3.0
2017-Feb-21 14:00N 53°30' E 008°36'2 3.4 290 / 121011.5 8.2 2.4 3.1
2017-Feb-21 13:31N 53°31' E 008°35'2 3.0
2017-Feb-21 13:00N 53°30' E 008°36'2 3.0 280 / 141011.4 8.5 2.4 2.9
2017-Feb-21 12:28N 53°31' E 008°35'2 3.3
2017-Feb-21 12:00N 53°30' E 008°36'2 3.4 290 / 141011.0 8.0 2.2 2.9
2017-Feb-21 11:31N 53°31' E 008°35'2 3.0
2017-Feb-21 11:00N 53°30' E 008°36'2 3.4 280 / 141010.8 7.3 4.1 3.0
2017-Feb-21 10:31N 53°31' E 008°35'2 3.0
2017-Feb-21 10:00N 53°30' E 008°36'2 3.4 270 / 101010.4 7.3 4.1 2.7
2017-Feb-21 09:31N 53°31' E 008°35'2 3.0
2017-Feb-21 09:00N 53°30' E 008°36'2 3.4 260 / 101009.8 6.3 4.2 2.5
2017-Feb-21 08:32N 53°31' E 008°35'2 2.9
2017-Feb-21 08:00N 53°30' E 008°36'3 6.0 270 / 121009.1 6.3 3.9 2.4
2017-Feb-21 07:33N 53°32' E 008°34'712.5
2017-Feb-21 07:00N 53°36' E 008°24'4 9.7 270 / 171008.6 4.8 3.7 2.6
2017-Feb-21 06:33N 53°40' E 008°22'1017.9
2017-Feb-21 06:00N 53°48' E 008°12'3 5.8 270 / 171007.7 5.3 4.0 4.1
2017-Feb-21 05:33N 53°48' E 008°08'1017.9
2017-Feb-21 05:00N 53°54' E 007°54'1110.6 290 / 191007.9 6.5 4.2 3.8
2017-Feb-21 04:00N 53°54' E 007°36'0 0.0 260 / 231007.5 4.9 3.6 3.5
2017-Feb-21 03:00N 53°54' E 007°36'0 0.0 260 / 171007.5 4.9 4.0 3.5
2017-Feb-21 02:00N 53°54' E 007°36'9 9.3 270 / 161008.0 4.9 4.2 3.5
2017-Feb-21 01:00N 53°48' E 007°24'4 3.5 260 / 191008.4 5.1 4.3 3.6
2017-Feb-21 00:00N 53°48' E 007°30'0 0.0 250 / 191008.4 5.1 4.4 3.6
2017-Feb-20 23:00N 53°48' E 007°30'6 6.0 250 / 191008.2 5.6 4.7 3.5
2017-Feb-20 22:00N 53°54' E 007°30'4 3.5 260 / 211008.2 5.7 5.0 3.5
2017-Feb-20 21:00N 53°54' E 007°36'0 0.0 260 / 211007.8 5.6 5.1 3.5
2017-Feb-20 20:00N 53°54' E 007°36'9 9.3 270 / 211007.7 7.4 6.4 3.5
2017-Feb-20 19:00N 53°48' E 007°24'4 3.5 270 / 251007.4 6.1 5.6 3.6
2017-Feb-20 18:00N 53°48' E 007°30'7 7.0 250 / 291006.4 6.0 5.3 3.6
2017-Feb-20 17:00N 53°54' E 007°36'0 0.0 250 / 271006.1 5.8 5.0 3.5
2017-Feb-20 16:00N 53°54' E 007°36'9 9.3 250 / 251006.7 5.9 5.3 3.5
2017-Feb-20 15:00N 53°48' E 007°24'7 7.0 240 / 291006.6 6.2 5.7 3.6
2017-Feb-20 14:00N 53°54' E 007°30'0 0.0 240 / 291007.3 5.5 5.6 3.4
2017-Feb-20 13:00N 53°54' E 007°30'0 0.0 240 / 271007.9 5.3 5.0 3.5
2017-Feb-20 12:00N 53°54' E 007°30'4 3.5 240 / 291008.5 5.7 5.5 3.5
2017-Feb-20 11:00N 53°54' E 007°36'0 0.0 230 / 271009.3 5.9 5.6 3.5
2017-Feb-20 10:00N 53°54' E 007°36'9 9.3 230 / 251009.5 5.8 5.3 3.5
2017-Feb-20 09:00N 53°48' E 007°24'4 3.5 230 / 231010.3 5.5 5.6 3.4
2017-Feb-20 08:00N 53°48' E 007°30'0 0.0 220 / 291010.6 5.4 4.9 3.5
2017-Feb-20 07:00N 53°48' E 007°30'6 6.0 220 / 271010.7 5.3 4.8 3.4
2017-Feb-20 06:00N 53°54' E 007°30'0 0.0 220 / 271011.2 5.9 4.7 3.4
2017-Feb-20 05:00N 53°54' E 007°30'4 3.5 220 / 191012.3 5.9 4.6 3.4
2017-Feb-20 04:00N 53°54' E 007°24'7 7.0 220 / 251012.8 5.4 4.2 3.6
2017-Feb-20 03:00N 54°00' E 007°18'1312.5 220 / 231012.6 5.1 4.1 4.2
2017-Feb-20 02:00N 54°12' E 007°12'9 9.2 220 / 231013.2 5.3 4.3 4.8
2017-Feb-20 01:00N 54°18' E 007°00'1615.9 220 / 231013.7 5.7 4.5 5.0
2017-Feb-20 00:00N 54°30' E 006°42'1212.0 230 / 211014.4 5.8 4.9 5.2
2017-Feb-19 23:00N 54°36' E 006°24'1212.0 230 / 171014.8 5.9 5.2 5.5
2017-Feb-19 22:00N 54°42' E 006°06'9 9.2 240 / 211015.1 5.8 5.8 5.7
2017-Feb-19 21:00N 54°48' E 005°54'1615.8 240 / 191014.7 5.5 5.2 5.8
2017-Feb-19 20:00N 55°00' E 005°36'9 9.1 230 / 141015.0 6.0 5.4 5.8
2017-Feb-19 19:00N 55°06' E 005°24'1211.9 250 / 141015.2 5.9 5.3 5.4
2017-Feb-19 18:00N 55°12' E 005°06'1615.8 260 / 161015.3 6.0 5.3 5.5
2017-Feb-19 17:00N 55°24' E 004°48'1514.9 270 / 141015.1 6.7 4.9 5.8
2017-Feb-19 16:00N 55°30' E 004°24'1615.7 270 / 161014.8 6.5 5.2 5.6
2017-Feb-19 15:00N 55°42' E 004°06'1211.8 260 / 161014.9 6.2 5.3 5.4
2017-Feb-19 14:00N 55°48' E 003°48'1413.8 270 / 161015.0 6.7 5.6 5.5
2017-Feb-19 13:00N 56°00' E 003°36'1413.7 280 / 141014.5 7.0 5.7 6.4
2017-Feb-19 12:00N 56°12' E 003°24'1615.6 280 / 141014.2 7.3 5.1 6.4
2017-Feb-19 11:00N 56°24' E 003°06'7 6.9 290 / 121013.8 7.0 5.5 6.5
2017-Feb-19 10:00N 56°30' E 003°00'0 0.0 300 / 121013.5 7.1 5.3 6.4
2017-Feb-19 09:00N 56°30' E 003°00'1413.7 290 / 171012.8 7.3 5.7 6.4
2017-Feb-19 08:00N 56°42' E 003°12'0 0.0 280 / 121012.3 7.1 5.8 6.3
2017-Feb-19 06:00N 56°42' E 003°12'0 0.0 280 / 141011.2 7.2 5.7 6.3
2017-Feb-19 05:00N 56°42' E 003°12'3 3.3 260 / 171010.6 7.2 5.6 6.3
2017-Feb-19 04:00N 56°42' E 003°18'0 0.0 260 / 171010.3 7.4 5.7 6.2
2017-Feb-19 03:00N 56°42' E 003°18'6 6.0 260 / 211010.4 7.5 5.8 6.2
2017-Feb-19 02:00N 56°48' E 003°18'3 3.3 250 / 211010.6 7.7 5.9 6.3
2017-Feb-19 01:00N 56°48' E 003°24'0 0.0 240 / 211010.8 7.7 6.1 6.3
2017-Feb-19 00:00N 56°48' E 003°24'0 0.0 230 / 251010.9 7.5 6.2 6.2
2017-Feb-18 23:00N 56°48' E 003°24'7 6.8 230 / 251011.3 7.7 6.3 6.2
2017-Feb-18 22:00N 56°54' E 003°30'0 0.0 230 / 231012.0 7.6 6.3 6.2
2017-Feb-18 21:00N 56°54' E 003°30'3 3.3 220 / 231012.2 7.3 6.3 6.2
2017-Feb-18 20:00N 56°54' E 003°36'6 6.0 210 / 211012.9 7.0 6.2 6.2
2017-Feb-18 19:00N 57°00' E 003°36'3 3.3 220 / 231013.6 7.0 6.2 6.2
2017-Feb-18 18:00N 57°00' E 003°42'7 6.8 220 / 231013.6 7.1 6.1 6.2
2017-Feb-18 17:00N 57°06' E 003°48'7 6.8 220 / 231013.8 7.5 5.9 6.5
2017-Feb-18 16:00N 57°12' E 003°54'3 3.3 220 / 231013.9 7.5 6.0 6.6
2017-Feb-18 15:00N 57°12' E 004°00'3 3.3 210 / 211014.3 7.2 5.9 6.5
2017-Feb-18 14:00N 57°12' E 004°06'1413.6 200 / 231015.3 7.0 5.8 6.3
2017-Feb-18 13:00N 57°24' E 004°18'9 8.8 200 / 251015.6 6.8 5.6 6.3
2017-Feb-18 12:00N 57°30' E 004°30'1413.6 200 / 231016.6 6.7 5.4 6.5
2017-Feb-18 11:00N 57°42' E 004°42'0 0.0 200 / 231017.4 6.4 5.3 6.6
2017-Feb-18 10:00N 57°42' E 004°42'6 6.4 200 / 211018.5 6.3 5.2 6.5
2017-Feb-18 09:00N 57°42' E 004°54'10 9.6 190 / 231019.1 5.8 4.7 6.7
2017-Feb-18 08:00N 57°42' E 005°12'0 0.0 210 / 171020.0 5.3 4.0 7.6
2017-Feb-18 07:00N 57°42' E 005°12'0 0.0 200 / 161020.5 4.6 3.8 7.5
2017-Feb-18 06:00N 57°42' E 005°12'0 0.0 220 / 141021.2 4.4 3.3 7.6
2017-Feb-18 05:00N 57°42' E 005°12'0 0.0 220 / 121021.6 4.4 3.6 7.6
2017-Feb-18 04:00N 57°42' E 005°12'6 6.0 260 / 101021.9 5.0 3.8 7.5
2017-Feb-18 03:00N 57°36' E 005°12'6 6.4 270 / 101022.3 5.5 4.4 6.8
2017-Feb-18 02:00N 57°36' E 005°00'2010.0 270 / 121023.0 5.8 4.3 6.4
2017-Feb-18 00:00N 57°24' E 004°30'7 6.8 260 / 61023.8 5.6 5.5 6.3
2017-Feb-17 23:00N 57°30' E 004°24'1212.4 280 / 81023.7 6.0 4.7 6.5
2017-Feb-17 22:00N 57°42' E 004°30'6 6.0 300 / 101023.9 6.1 5.2 6.7
2017-Feb-17 21:00N 57°48' E 004°30'6 6.0 290 / 101023.5 6.7 5.5 6.8
2017-Feb-17 20:00N 57°54' E 004°30'1212.4 320 / 121023.4 7.0 5.3 7.0
2017-Feb-17 19:00N 58°06' E 004°36'10 9.5 310 / 81023.4 6.9 5.8 7.3
2017-Feb-17 18:00N 58°06' E 004°18'6 6.3 330 / 101023.2 7.0 5.3 7.5
2017-Feb-17 17:00N 58°06' E 004°06'1414.0 320 / 121023.0 7.2 5.5 7.2
2017-Feb-17 16:00N 58°12' E 003°42'6 6.3 320 / 121023.2 7.3 5.8 7.5
2017-Feb-17 15:00N 58°12' E 003°30'9 8.7 320 / 121023.3 7.4 5.9 7.4
2017-Feb-17 14:00N 58°18' E 003°18'1414.0 310 / 141023.2 7.3 5.9 7.4
2017-Feb-17 13:00N 58°12' E 002°54'9 9.5 310 / 141023.5 7.2 5.5 7.0
2017-Feb-17 12:00N 58°12' E 002°36'1312.6 300 / 121023.8 7.5 5.4 7.0
2017-Feb-17 11:00N 58°12' E 002°12'3 3.2 310 / 121023.9 7.6 5.4 7.3
2017-Feb-17 10:00N 58°12' E 002°06'6 6.3 320 / 81023.2 7.6 4.7 7.3
2017-Feb-17 09:00N 58°12' E 001°54'14 7.0 330 / 141023.1 7.6 4.9 7.5
2017-Feb-17 07:00N 58°18' E 001°30'0 0.0 330 / 101021.8 7.4 4.5 7.8
2017-Feb-17 06:00N 58°18' E 001°30'3 3.2 340 / 171021.9 7.4 4.4 7.8
2017-Feb-17 05:00N 58°18' E 001°36'3 3.2 340 / 191021.1 7.7 5.4 7.8
2017-Feb-17 04:00N 58°18' E 001°42'6 6.3 350 / 211020.1 7.8 5.5 7.7
2017-Feb-17 03:00N 58°18' E 001°54'3 3.2 340 / 191019.1 7.9 6.2 7.6
2017-Feb-17 02:00N 58°18' E 002°00'9 9.5 340 / 171018.5 7.9 6.4 7.5
2017-Feb-17 01:00N 58°18' E 002°18'9 9.5 330 / 171017.3 7.8 6.6 7.3
2017-Feb-17 00:00N 58°18' E 002°36'1312.6 310 / 101016.7 7.4 6.2 7.0
2017-Feb-16 23:00N 58°18' E 003°00'9 4.4 360 / 161015.8 7.2 5.2 7.2
2017-Feb-16 21:00N 58°12' E 003°12'7 6.8 280 / 101014.8 6.9 6.3 7.0
2017-Feb-16 20:00N 58°06' E 003°06'1111.3 260 / 121014.2 6.8 6.8 6.9
2017-Feb-16 19:00N 58°00' E 002°48'1111.3 260 / 101014.1 6.8 6.3 6.7
2017-Feb-16 18:00N 57°54' E 002°30'1515.4 270 / 141013.9 7.1 6.3 7.0
2017-Feb-16 17:00N 57°42' E 002°12'6 6.0 260 / 191013.8 7.6 5.7 7.5
2017-Feb-16 16:00N 57°36' E 002°12'7 6.8 250 / 171013.8 7.8 5.2 7.4
2017-Feb-16 15:00N 57°30' E 002°18'9 8.8 240 / 211014.1 7.6 5.2 7.2
2017-Feb-16 14:00N 57°24' E 002°30'7 6.8 240 / 231014.8 7.7 5.1 7.1
2017-Feb-16 13:00N 57°18' E 002°36'6 6.5 240 / 231015.3 7.7 5.3 7.0
2017-Feb-16 12:00N 57°18' E 002°48'1414.3 220 / 231015.6 7.7 5.8 6.8
2017-Feb-16 11:00N 57°24' E 003°12'10 9.7 220 / 211016.1 7.5 5.7 6.6
2017-Feb-16 10:00N 57°24' E 003°30'7 6.8 210 / 171016.7 7.3 6.0 6.6
2017-Feb-16 09:00N 57°30' E 003°36'1212.4 200 / 171016.5 6.2 5.7 6.5
2017-Feb-16 08:00N 57°42' E 003°30'0 0.0 210 / 171016.8 6.4 6.0 6.7
2017-Feb-16 07:00N 57°42' E 003°30'0 0.0 210 / 141017.3 6.3 5.9 6.8
2017-Feb-16 06:00N 57°42' E 003°30'3 3.2 220 / 121017.7 6.1 5.8 6.7
2017-Feb-16 05:00N 57°42' E 003°24'9 8.8 230 / 141018.6 6.2 5.8 6.7
2017-Feb-16 04:00N 57°36' E 003°12'1212.0 200 / 141019.0 6.4 6.1 6.7
2017-Feb-16 03:00N 57°24' E 003°12'1212.0 190 / 141019.7 6.6 6.6 6.6
2017-Feb-16 02:00N 57°12' E 003°12'7 6.8 200 / 121020.9 6.3 6.4 6.5
2017-Feb-16 01:00N 57°18' E 003°06'1111.4 180 / 161021.0 6.0 5.7 6.5
2017-Feb-16 00:00N 57°24' E 002°48'1212.0 200 / 161021.7 6.1 5.7 6.8
2017-Feb-15 23:00N 57°12' E 002°48'10 9.8 200 / 161022.4 6.1 6.1 6.8
2017-Feb-15 22:00N 57°12' E 002°30'7 6.8 190 / 191022.4 6.1 5.8 7.0
2017-Feb-15 21:00N 57°18' E 002°24'7 6.8 190 / 191022.8 6.2 5.8 7.0
2017-Feb-15 20:00N 57°24' E 002°30'1212.4 170 / 191023.3 6.4 6.1 7.1
2017-Feb-15 19:00N 57°36' E 002°36'1312.9 180 / 161023.8 7.2 6.2 6.9
2017-Feb-15 18:00N 57°36' E 002°12'6 6.4 180 / 141024.0 7.3 6.3 7.4
2017-Feb-15 17:00N 57°36' E 002°00'10 9.6 190 / 141024.2 7.3 6.4 7.4
2017-Feb-15 16:00N 57°36' E 001°42'1312.9 200 / 141024.3 7.5 6.3 7.7
2017-Feb-15 15:00N 57°36' E 001°18'7 6.8 200 / 141024.6 7.5 6.4 7.7
2017-Feb-15 14:00N 57°30' E 001°12'9 8.8 180 / 161024.8 9.0 6.3 7.7
2017-Feb-15 13:00N 57°36' E 001°00'6 6.4 180 / 141024.9 7.6 6.3 7.8
2017-Feb-15 12:00N 57°36' E 000°48'6 6.0 190 / 161025.3 7.5 6.2 7.5
2017-Feb-15 11:00N 57°30' E 000°48'1212.4 190 / 141026.1 7.6 6.2 7.7
2017-Feb-15 10:00N 57°18' E 000°54'3 3.2 180 / 141026.0 7.6 5.7 7.8
2017-Feb-15 09:00N 57°18' E 001°00'9 4.4 170 / 171026.4 7.5 5.8 7.6
2017-Feb-15 07:00N 57°12' E 001°12'0 0.0 160 / 161026.1 7.3 5.6 7.5
2017-Feb-15 06:00N 57°12' E 001°12'0 0.0 150 / 161026.5 7.2 5.3 7.5
2017-Feb-15 05:00N 57°12' E 001°12'1212.0 160 / 171026.4 7.1 5.2 7.6
2017-Feb-15 04:00N 57°24' E 001°12'6 6.0 160 / 191026.4 6.8 5.0 7.6
2017-Feb-15 03:00N 57°30' E 001°12'1212.0 160 / 171026.5 6.3 4.4 7.6
2017-Feb-15 02:00N 57°42' E 001°12'6 6.0 170 / 191026.9 6.1 4.0 7.7
2017-Feb-15 01:00N 57°48' E 001°12'10 9.6 170 / 191027.1 6.3 3.4 7.7
2017-Feb-15 00:00N 57°48' E 000°54'9 8.8 170 / 211026.9 6.3 3.0 7.9
2017-Feb-14 23:00N 57°54' E 000°42'10 9.6 170 / 211026.8 6.4 2.8 8.0
2017-Feb-14 22:00N 57°54' E 000°24'1413.6 160 / 191027.4 6.1 2.4 8.0
2017-Feb-14 21:00N 58°06' E 000°36'7 6.8 150 / 211027.7 6.0 2.8 8.0
2017-Feb-14 20:00N 58°12' E 000°42'7 6.8 150 / 231027.7 5.9 2.5 8.0
2017-Feb-14 19:00N 58°18' E 000°48'1212.4 140 / 251028.1 5.7 2.7 7.9
2017-Feb-14 18:00N 58°30' E 000°54'1212.4 130 / 251028.8 6.2 2.3 7.8
2017-Feb-14 17:00N 58°42' E 001°00'7 6.8 130 / 231029.4 6.2 2.9 7.7
2017-Feb-14 16:00N 58°48' E 001°06'3 3.1 140 / 211029.8 6.2 3.0 7.6
2017-Feb-14 15:00N 58°48' E 001°00'9 4.7 120 / 211029.6 6.3 2.8 7.6
2017-Feb-14 13:00N 58°48' E 000°42'1212.4 130 / 211031.3 6.5 3.4 7.8
2017-Feb-14 12:00N 59°00' E 000°48'7 6.7 120 / 211032.0 6.1 3.4 7.8
2017-Feb-14 11:00N 59°06' E 000°54'6 6.0 120 / 231032.6 5.8 3.2 7.7
2017-Feb-14 10:00N 59°12' E 000°54'7 6.7 120 / 191032.9 5.3 2.6 7.6
2017-Feb-14 09:00N 59°18' E 001°00'6 6.1 120 / 191033.3 5.0 2.6 7.6
2017-Feb-14 08:00N 59°18' E 001°12'0 0.0 110 / 191033.9 4.6 2.2 7.5
2017-Feb-14 07:00N 59°18' E 001°12'3 3.1 130 / 161034.3 4.5 2.1 7.5
2017-Feb-14 06:00N 59°18' E 001°18'7 6.7 150 / 161034.3 4.7 2.5 7.5
2017-Feb-14 05:00N 59°12' E 001°12'7 6.7 130 / 161035.0 4.5 1.8 7.5
2017-Feb-14 04:00N 59°06' E 001°18'1212.0 130 / 141034.9 4.6 1.9 7.5
2017-Feb-14 03:00N 58°54' E 001°18'6 6.0 130 / 161035.1 4.5 2.0 7.6
2017-Feb-14 02:00N 58°48' E 001°18'18 9.1 130 / 171035.2 4.4 1.8 7.6
2017-Feb-14 00:00N 58°30' E 001°24'6 6.0 130 / 171035.9 4.5 2.1 7.8
2017-Feb-13 23:00N 58°24' E 001°24'1312.6 140 / 171035.8 4.4 1.7 7.8
2017-Feb-13 22:00N 58°24' E 001°48'3 3.1 120 / 191036.7 4.5 1.8 7.5
2017-Feb-13 21:00N 58°24' E 001°54'9 9.4 120 / 161037.2 3.9 1.0 7.3
2017-Feb-13 20:00N 58°24' E 002°12'9 9.4 120 / 141037.5 3.9 0.9 7.1
2017-Feb-13 19:00N 58°24' E 002°30'7 6.8 110 / 141037.9 4.0 0.9 7.0
2017-Feb-13 18:00N 58°30' E 002°36'1212.0 100 / 141038.1 4.1 1.0 7.3
2017-Feb-13 17:00N 58°42' E 002°36'14 6.9 120 / 81038.8 3.4-0.0 7.5
2017-Feb-13 15:00N 58°48' E 003°00'1111.1 120 / 121039.3 2.7-0.9 7.5
2017-Feb-13 14:00N 58°54' E 003°18'6 6.0 110 / 121039.4 2.8-0.6 7.6
2017-Feb-13 13:00N 59°00' E 003°18'3 3.1 110 / 101039.4 3.3-0.5 8.0
2017-Feb-13 12:00N 59°00' E 003°12'7 6.7 110 / 101039.6 3.6-1.2 8.0
2017-Feb-13 11:00N 59°06' E 003°06'6 6.0 120 / 61040.3 3.5-1.1 8.2
2017-Feb-13 10:00N 59°12' E 003°06'1212.3 120 / 61040.0 3.2-1.4 8.0
2017-Feb-13 09:00N 59°12' E 002°42'9 8.6 100 / 81040.1 3.2-1.2 7.5
2017-Feb-13 08:00N 59°18' E 002°30'0 0.0 130 / 81040.5 3.0-1.7 7.5
2017-Feb-13 07:00N 59°18' E 002°30'0 0.0 130 / 101040.4 3.3-1.3 7.5
2017-Feb-13 06:00N 59°18' E 002°30'1212.4 130 / 81040.4 2.7-2.2 7.5
2017-Feb-13 05:00N 59°06' E 002°36'7 6.7 120 / 101040.6 2.5-2.5 7.5
2017-Feb-13 04:00N 59°00' E 002°42'1212.0 120 / 141040.9 2.3-2.4 7.5
2017-Feb-13 03:00N 58°48' E 002°42'7 6.8 110 / 121040.8 2.1-3.0 7.4
2017-Feb-13 02:00N 58°42' E 002°48'9 9.4 110 / 141041.0 2.3-2.8 7.5
2017-Feb-13 01:00N 58°42' E 003°06'7 6.8 120 / 141041.2 1.8-3.6 7.6
2017-Feb-13 00:00N 58°48' E 003°12'6 6.0 100 / 121041.4 2.4-3.0 7.5
2017-Feb-12 23:00N 58°54' E 003°12'4210.5 100 / 121041.4 2.8-2.9 7.6
2017-Feb-12 19:00N 59°36' E 003°12'6 6.0 200 / 101041.7 3.5-2.3 8.1
2017-Feb-12 18:00N 59°42' E 003°12'6 6.0 190 / 121041.6 3.8-1.4 8.2
2017-Feb-12 17:00N 59°48' E 003°12'   200 / 101041.5 4.2-0.8 8.3
Track history (hours):
 
Tides and Currents Weather Stations Pressure Air Temp Water Temp Dewpoint Dewpoint Depression Visibility Wind Speed Wind Dir Waves Ship Positions

Oceanographic research ship Walther Herwig III (Germany)

Detailed information on ship capabilities available from University of Delaware's Ocean Information Center.

Last reported at 2017-Feb-22 16:25 UTC. Time now 2017-Feb-22 17:25 UTC.
Position N 53°31' E 008°35'.

Length 63.2 m; beam 14.8 m; draft 5.5 m.

Type: Fishing. MMSI: 211215500.

Date/timePositionNaut miles runAvg speedWind from/ knotsBaromVisibWave heightAir tempDewpointWater temp
2017-Feb-22 16:25N 53°31' E 008°35'2 3.7
2017-Feb-22 16:00N 53°30' E 008°36'2 2.8 270 / 14998.8 7.5 1.3 3.6
2017-Feb-22 15:25N 53°31' E 008°35'2 3.7
2017-Feb-22 15:00N 53°30' E 008°36'2 3.0 270 / 12998.7 7.6 1.1 3.7
2017-Feb-22 14:28N 53°31' E 008°35'2 3.3
2017-Feb-22 14:00N 53°30' E 008°36'2 2.4 270 / 12999.0 8.0 1.3 3.6
2017-Feb-22 13:19N 53°31' E 008°35'2 4.8
2017-Feb-22 13:00N 53°30' E 008°36'2 3.4 270 / 12999.3 8.5 2.7 3.4
2017-Feb-22 12:31N 53°31' E 008°35'2 3.0
2017-Feb-22 12:00N 53°30' E 008°36'2 3.0 260 / 12999.7 8.2 3.3 3.3
2017-Feb-22 11:28N 53°31' E 008°35'2 3.3
2017-Feb-22 11:00N 53°30' E 008°36'2 2.6 270 / 14999.6 8.3 2.5 3.4
2017-Feb-22 10:22N 53°31' E 008°35'2 4.2
2017-Feb-22 10:00N 53°30' E 008°36'2 3.4 270 / 16999.1 8.6 3.9 3.2
2017-Feb-22 09:31N 53°31' E 008°35'2 3.0
2017-Feb-22 09:00N 53°30' E 008°36'2 3.4 260 / 14998.3 8.5 5.5 3.1
2017-Feb-22 08:31N 53°31' E 008°35'2 3.0
2017-Feb-22 08:00N 53°30' E 008°36'2 2.4 260 / 16998.1 8.6 7.8 3.0
2017-Feb-22 07:19N 53°31' E 008°35'2 4.8
2017-Feb-22 07:00N 53°30' E 008°36'2 3.4 250 / 16997.9 8.4 7.3 3.2
2017-Feb-22 06:31N 53°31' E 008°35'2 3.0
2017-Feb-22 06:00N 53°30' E 008°36'2 3.4 240 / 16997.9 8.6 7.4 3.3
2017-Feb-22 05:31N 53°31' E 008°35'2 3.0
2017-Feb-22 05:00N 53°30' E 008°36'2 3.4 240 / 17998.3 8.8 7.4 3.3
2017-Feb-22 04:31N 53°31' E 008°35'2 3.0
2017-Feb-22 04:00N 53°30' E 008°36'2 2.6 240 / 17998.9 9.0 7.6 3.2
2017-Feb-22 03:22N 53°31' E 008°35'2 4.2
2017-Feb-22 03:00N 53°30' E 008°36'2 3.4 240 / 16999.6 9.2 8.4 3.5
2017-Feb-22 02:31N 53°31' E 008°35'2 3.0
2017-Feb-22 02:00N 53°30' E 008°36'2 3.4 220 / 161000.8 8.8 7.9 3.5
2017-Feb-22 01:31N 53°31' E 008°35'2 3.0
2017-Feb-22 01:00N 53°30' E 008°36'2 2.4 210 / 141002.3 7.6 6.8 3.4
2017-Feb-22 00:19N 53°31' E 008°35'2 4.8
2017-Feb-22 00:00N 53°30' E 008°36'2 3.4 210 / 101004.2 6.6 4.7 3.2
2017-Feb-21 23:31N 53°31' E 008°35'2 3.0
2017-Feb-21 23:00N 53°30' E 008°36'2 3.4 190 / 101006.0 6.0 3.2 3.2
2017-Feb-21 22:31N 53°31' E 008°35'2 3.0
2017-Feb-21 22:00N 53°30' E 008°36'2 2.8 210 / 101007.8 5.8 3.2 3.2
2017-Feb-21 21:25N 53°31' E 008°35'2 3.7
2017-Feb-21 21:00N 53°30' E 008°36'2 3.4 210 / 101009.0 5.6 2.9 3.3
2017-Feb-21 20:31N 53°31' E 008°35'2 3.0
2017-Feb-21 20:00N 53°30' E 008°36'2 3.0 220 / 81009.8 4.8 2.9 3.2
2017-Feb-21 19:28N 53°31' E 008°35'2 3.3
2017-Feb-21 19:00N 53°30' E 008°36'2 1.9 230 / 61010.5 5.3 3.3 3.4
2017-Feb-21 18:10N 53°31' E 008°35'2 8.9
2017-Feb-21 18:00N 53°30' E 008°36'2 3.4 250 / 81011.2 6.1 3.0 3.3
2017-Feb-21 17:31N 53°31' E 008°35'2 3.0
2017-Feb-21 17:00N 53°30' E 008°36'2 3.0 260 / 81011.3 6.5 2.8 3.2
2017-Feb-21 16:28N 53°31' E 008°35'2 3.3
2017-Feb-21 16:00N 53°30' E 008°36'2 3.4 280 / 61011.6 7.8 2.5 3.1
2017-Feb-21 15:31N 53°31' E 008°35'2 3.0
2017-Feb-21 15:00N 53°30' E 008°36'2 3.4 280 / 101011.5 8.1 2.0 3.1
2017-Feb-21 14:31N 53°31' E 008°35'2 3.0
2017-Feb-21 14:00N 53°30' E 008°36'2 3.4 290 / 121011.5 8.2 2.4 3.1
2017-Feb-21 13:31N 53°31' E 008°35'2 3.0
2017-Feb-21 13:00N 53°30' E 008°36'2 3.0 280 / 141011.4 8.5 2.4 2.9
2017-Feb-21 12:28N 53°31' E 008°35'2 3.3
2017-Feb-21 12:00N 53°30' E 008°36'2 3.4 290 / 141011.0 8.0 2.2 2.9
2017-Feb-21 11:31N 53°31' E 008°35'2 3.0
2017-Feb-21 11:00N 53°30' E 008°36'2 3.4 280 / 141010.8 7.3 4.1 3.0
2017-Feb-21 10:31N 53°31' E 008°35'2 3.0
2017-Feb-21 10:00N 53°30' E 008°36'2 3.4 270 / 101010.4 7.3 4.1 2.7
2017-Feb-21 09:31N 53°31' E 008°35'2 3.0
2017-Feb-21 09:00N 53°30' E 008°36'2 3.4 260 / 101009.8 6.3 4.2 2.5
2017-Feb-21 08:32N 53°31' E 008°35'2 2.9
2017-Feb-21 08:00N 53°30' E 008°36'3 6.0 270 / 121009.1 6.3 3.9 2.4
2017-Feb-21 07:33N 53°32' E 008°34'712.5
2017-Feb-21 07:00N 53°36' E 008°24'4 9.7 270 / 171008.6 4.8 3.7 2.6
2017-Feb-21 06:33N 53°40' E 008°22'1017.9
2017-Feb-21 06:00N 53°48' E 008°12'3 5.8 270 / 171007.7 5.3 4.0 4.1
2017-Feb-21 05:33N 53°48' E 008°08'1017.9
2017-Feb-21 05:00N 53°54' E 007°54'1110.6 290 / 191007.9 6.5 4.2 3.8
2017-Feb-21 04:00N 53°54' E 007°36'0 0.0 260 / 231007.5 4.9 3.6 3.5
2017-Feb-21 03:00N 53°54' E 007°36'0 0.0 260 / 171007.5 4.9 4.0 3.5
2017-Feb-21 02:00N 53°54' E 007°36'9 9.3 270 / 161008.0 4.9 4.2 3.5
2017-Feb-21 01:00N 53°48' E 007°24'4 3.5 260 / 191008.4 5.1 4.3 3.6
2017-Feb-21 00:00N 53°48' E 007°30'0 0.0 250 / 191008.4 5.1 4.4 3.6
2017-Feb-20 23:00N 53°48' E 007°30'6 6.0 250 / 191008.2 5.6 4.7 3.5
2017-Feb-20 22:00N 53°54' E 007°30'4 3.5 260 / 211008.2 5.7 5.0 3.5
2017-Feb-20 21:00N 53°54' E 007°36'0 0.0 260 / 211007.8 5.6 5.1 3.5
2017-Feb-20 20:00N 53°54' E 007°36'9 9.3 270 / 211007.7 7.4 6.4 3.5
2017-Feb-20 19:00N 53°48' E 007°24'4 3.5 270 / 251007.4 6.1 5.6 3.6
2017-Feb-20 18:00N 53°48' E 007°30'7 7.0 250 / 291006.4 6.0 5.3 3.6
2017-Feb-20 17:00N 53°54' E 007°36'0 0.0 250 / 271006.1 5.8 5.0 3.5
2017-Feb-20 16:00N 53°54' E 007°36'9 9.3 250 / 251006.7 5.9 5.3 3.5
2017-Feb-20 15:00N 53°48' E 007°24'7 7.0 240 / 291006.6 6.2 5.7 3.6
2017-Feb-20 14:00N 53°54' E 007°30'0 0.0 240 / 291007.3 5.5 5.6 3.4
2017-Feb-20 13:00N 53°54' E 007°30'0 0.0 240 / 271007.9 5.3 5.0 3.5
2017-Feb-20 12:00N 53°54' E 007°30'4 3.5 240 / 291008.5 5.7 5.5 3.5
2017-Feb-20 11:00N 53°54' E 007°36'0 0.0 230 / 271009.3 5.9 5.6 3.5
2017-Feb-20 10:00N 53°54' E 007°36'9 9.3 230 / 251009.5 5.8 5.3 3.5
2017-Feb-20 09:00N 53°48' E 007°24'4 3.5 230 / 231010.3 5.5 5.6 3.4
2017-Feb-20 08:00N 53°48' E 007°30'0 0.0 220 / 291010.6 5.4 4.9 3.5
2017-Feb-20 07:00N 53°48' E 007°30'6 6.0 220 / 271010.7 5.3 4.8 3.4
2017-Feb-20 06:00N 53°54' E 007°30'0 0.0 220 / 271011.2 5.9 4.7 3.4
2017-Feb-20 05:00N 53°54' E 007°30'4 3.5 220 / 191012.3 5.9 4.6 3.4
2017-Feb-20 04:00N 53°54' E 007°24'7 7.0 220 / 251012.8 5.4 4.2 3.6
2017-Feb-20 03:00N 54°00' E 007°18'1312.5 220 / 231012.6 5.1 4.1 4.2
2017-Feb-20 02:00N 54°12' E 007°12'9 9.2 220 / 231013.2 5.3 4.3 4.8
2017-Feb-20 01:00N 54°18' E 007°00'1615.9 220 / 231013.7 5.7 4.5 5.0
2017-Feb-20 00:00N 54°30' E 006°42'1212.0 230 / 211014.4 5.8 4.9 5.2
2017-Feb-19 23:00N 54°36' E 006°24'1212.0 230 / 171014.8 5.9 5.2 5.5
2017-Feb-19 22:00N 54°42' E 006°06'9 9.2 240 / 211015.1 5.8 5.8 5.7
2017-Feb-19 21:00N 54°48' E 005°54'1615.8 240 / 191014.7 5.5 5.2 5.8
2017-Feb-19 20:00N 55°00' E 005°36'9 9.1 230 / 141015.0 6.0 5.4 5.8
2017-Feb-19 19:00N 55°06' E 005°24'1211.9 250 / 141015.2 5.9 5.3 5.4
2017-Feb-19 18:00N 55°12' E 005°06'1615.8 260 / 161015.3 6.0 5.3 5.5
2017-Feb-19 17:00N 55°24' E 004°48'1514.9 270 / 141015.1 6.7 4.9 5.8
2017-Feb-19 16:00N 55°30' E 004°24'1615.7 270 / 161014.8 6.5 5.2 5.6
2017-Feb-19 15:00N 55°42' E 004°06'1211.8 260 / 161014.9 6.2 5.3 5.4
2017-Feb-19 14:00N 55°48' E 003°48'1413.8 270 / 161015.0 6.7 5.6 5.5
2017-Feb-19 13:00N 56°00' E 003°36'1413.7 280 / 141014.5 7.0 5.7 6.4
2017-Feb-19 12:00N 56°12' E 003°24'1615.6 280 / 141014.2 7.3 5.1 6.4
2017-Feb-19 11:00N 56°24' E 003°06'7 6.9 290 / 121013.8 7.0 5.5 6.5
2017-Feb-19 10:00N 56°30' E 003°00'0 0.0 300 / 121013.5 7.1 5.3 6.4
2017-Feb-19 09:00N 56°30' E 003°00'1413.7 290 / 171012.8 7.3 5.7 6.4
2017-Feb-19 08:00N 56°42' E 003°12'0 0.0 280 / 121012.3 7.1 5.8 6.3
2017-Feb-19 06:00N 56°42' E 003°12'0 0.0 280 / 141011.2 7.2 5.7 6.3
2017-Feb-19 05:00N 56°42' E 003°12'3 3.3 260 / 171010.6 7.2 5.6 6.3
2017-Feb-19 04:00N 56°42' E 003°18'0 0.0 260 / 171010.3 7.4 5.7 6.2
2017-Feb-19 03:00N 56°42' E 003°18'6 6.0 260 / 211010.4 7.5 5.8 6.2
2017-Feb-19 02:00N 56°48' E 003°18'3 3.3 250 / 211010.6 7.7 5.9 6.3
2017-Feb-19 01:00N 56°48' E 003°24'0 0.0 240 / 211010.8 7.7 6.1 6.3
2017-Feb-19 00:00N 56°48' E 003°24'0 0.0 230 / 251010.9 7.5 6.2 6.2
2017-Feb-18 23:00N 56°48' E 003°24'7 6.8 230 / 251011.3 7.7 6.3 6.2
2017-Feb-18 22:00N 56°54' E 003°30'0 0.0 230 / 231012.0 7.6 6.3 6.2
2017-Feb-18 21:00N 56°54' E 003°30'3 3.3 220 / 231012.2 7.3 6.3 6.2
2017-Feb-18 20:00N 56°54' E 003°36'6 6.0 210 / 211012.9 7.0 6.2 6.2
2017-Feb-18 19:00N 57°00' E 003°36'3 3.3 220 / 231013.6 7.0 6.2 6.2
2017-Feb-18 18:00N 57°00' E 003°42'7 6.8 220 / 231013.6 7.1 6.1 6.2
2017-Feb-18 17:00N 57°06' E 003°48'7 6.8 220 / 231013.8 7.5 5.9 6.5
2017-Feb-18 16:00N 57°12' E 003°54'3 3.3 220 / 231013.9 7.5 6.0 6.6
2017-Feb-18 15:00N 57°12' E 004°00'3 3.3 210 / 211014.3 7.2 5.9 6.5
2017-Feb-18 14:00N 57°12' E 004°06'1413.6 200 / 231015.3 7.0 5.8 6.3
2017-Feb-18 13:00N 57°24' E 004°18'9 8.8 200 / 251015.6 6.8 5.6 6.3
2017-Feb-18 12:00N 57°30' E 004°30'1413.6 200 / 231016.6 6.7 5.4 6.5
2017-Feb-18 11:00N 57°42' E 004°42'0 0.0 200 / 231017.4 6.4 5.3 6.6
2017-Feb-18 10:00N 57°42' E 004°42'6 6.4 200 / 211018.5 6.3 5.2 6.5
2017-Feb-18 09:00N 57°42' E 004°54'10 9.6 190 / 231019.1 5.8 4.7 6.7
2017-Feb-18 08:00N 57°42' E 005°12'0 0.0 210 / 171020.0 5.3 4.0 7.6
2017-Feb-18 07:00N 57°42' E 005°12'0 0.0 200 / 161020.5 4.6 3.8 7.5
2017-Feb-18 06:00N 57°42' E 005°12'0 0.0 220 / 141021.2 4.4 3.3 7.6
2017-Feb-18 05:00N 57°42' E 005°12'0 0.0 220 / 121021.6 4.4 3.6 7.6
2017-Feb-18 04:00N 57°42' E 005°12'6 6.0 260 / 101021.9 5.0 3.8 7.5
2017-Feb-18 03:00N 57°36' E 005°12'6 6.4 270 / 101022.3 5.5 4.4 6.8
2017-Feb-18 02:00N 57°36' E 005°00'2010.0 270 / 121023.0 5.8 4.3 6.4
2017-Feb-18 00:00N 57°24' E 004°30'7 6.8 260 / 61023.8 5.6 5.5 6.3
2017-Feb-17 23:00N 57°30' E 004°24'1212.4 280 / 81023.7 6.0 4.7 6.5
2017-Feb-17 22:00N 57°42' E 004°30'6 6.0 300 / 101023.9 6.1 5.2 6.7
2017-Feb-17 21:00N 57°48' E 004°30'6 6.0 290 / 101023.5 6.7 5.5 6.8
2017-Feb-17 20:00N 57°54' E 004°30'1212.4 320 / 121023.4 7.0 5.3 7.0
2017-Feb-17 19:00N 58°06' E 004°36'10 9.5 310 / 81023.4 6.9 5.8 7.3
2017-Feb-17 18:00N 58°06' E 004°18'6 6.3 330 / 101023.2 7.0 5.3 7.5
2017-Feb-17 17:00N 58°06' E 004°06'1414.0 320 / 121023.0 7.2 5.5 7.2
2017-Feb-17 16:00N 58°12' E 003°42'6 6.3 320 / 121023.2 7.3 5.8 7.5
2017-Feb-17 15:00N 58°12' E 003°30'9 8.7 320 / 121023.3 7.4 5.9 7.4
2017-Feb-17 14:00N 58°18' E 003°18'1414.0 310 / 141023.2 7.3 5.9 7.4
2017-Feb-17 13:00N 58°12' E 002°54'9 9.5 310 / 141023.5 7.2 5.5 7.0
2017-Feb-17 12:00N 58°12' E 002°36'1312.6 300 / 121023.8 7.5 5.4 7.0
2017-Feb-17 11:00N 58°12' E 002°12'3 3.2 310 / 121023.9 7.6 5.4 7.3
2017-Feb-17 10:00N 58°12' E 002°06'6 6.3 320 / 81023.2 7.6 4.7 7.3
2017-Feb-17 09:00N 58°12' E 001°54'14 7.0 330 / 141023.1 7.6 4.9 7.5
2017-Feb-17 07:00N 58°18' E 001°30'0 0.0 330 / 101021.8 7.4 4.5 7.8
2017-Feb-17 06:00N 58°18' E 001°30'3 3.2 340 / 171021.9 7.4 4.4 7.8
2017-Feb-17 05:00N 58°18' E 001°36'3 3.2 340 / 191021.1 7.7 5.4 7.8
2017-Feb-17 04:00N 58°18' E 001°42'6 6.3 350 / 211020.1 7.8 5.5 7.7
2017-Feb-17 03:00N 58°18' E 001°54'3 3.2 340 / 191019.1 7.9 6.2 7.6
2017-Feb-17 02:00N 58°18' E 002°00'9 9.5 340 / 171018.5 7.9 6.4 7.5
2017-Feb-17 01:00N 58°18' E 002°18'9 9.5 330 / 171017.3 7.8 6.6 7.3
2017-Feb-17 00:00N 58°18' E 002°36'1312.6 310 / 101016.7 7.4 6.2 7.0
2017-Feb-16 23:00N 58°18' E 003°00'9 4.4 360 / 161015.8 7.2 5.2 7.2
2017-Feb-16 21:00N 58°12' E 003°12'7 6.8 280 / 101014.8 6.9 6.3 7.0
2017-Feb-16 20:00N 58°06' E 003°06'1111.3 260 / 121014.2 6.8 6.8 6.9
2017-Feb-16 19:00N 58°00' E 002°48'1111.3 260 / 101014.1 6.8 6.3 6.7
2017-Feb-16 18:00N 57°54' E 002°30'1515.4 270 / 141013.9 7.1 6.3 7.0
2017-Feb-16 17:00N 57°42' E 002°12'6 6.0 260 / 191013.8 7.6 5.7 7.5
2017-Feb-16 16:00N 57°36' E 002°12'7 6.8 250 / 171013.8 7.8 5.2 7.4
2017-Feb-16 15:00N 57°30' E 002°18'9 8.8 240 / 211014.1 7.6 5.2 7.2
2017-Feb-16 14:00N 57°24' E 002°30'7 6.8 240 / 231014.8 7.7 5.1 7.1
2017-Feb-16 13:00N 57°18' E 002°36'6 6.5 240 / 231015.3 7.7 5.3 7.0
2017-Feb-16 12:00N 57°18' E 002°48'1414.3 220 / 231015.6 7.7 5.8 6.8
2017-Feb-16 11:00N 57°24' E 003°12'10 9.7 220 / 211016.1 7.5 5.7 6.6
2017-Feb-16 10:00N 57°24' E 003°30'7 6.8 210 / 171016.7 7.3 6.0 6.6
2017-Feb-16 09:00N 57°30' E 003°36'1212.4 200 / 171016.5 6.2 5.7 6.5
2017-Feb-16 08:00N 57°42' E 003°30'0 0.0 210 / 171016.8 6.4 6.0 6.7
2017-Feb-16 07:00N 57°42' E 003°30'0 0.0 210 / 141017.3 6.3 5.9 6.8
2017-Feb-16 06:00N 57°42' E 003°30'3 3.2 220 / 121017.7 6.1 5.8 6.7
2017-Feb-16 05:00N 57°42' E 003°24'9 8.8 230 / 141018.6 6.2 5.8 6.7
2017-Feb-16 04:00N 57°36' E 003°12'1212.0 200 / 141019.0 6.4 6.1 6.7
2017-Feb-16 03:00N 57°24' E 003°12'1212.0 190 / 141019.7 6.6 6.6 6.6
2017-Feb-16 02:00N 57°12' E 003°12'7 6.8 200 / 121020.9 6.3 6.4 6.5
2017-Feb-16 01:00N 57°18' E 003°06'1111.4 180 / 161021.0 6.0 5.7 6.5
2017-Feb-16 00:00N 57°24' E 002°48'1212.0 200 / 161021.7 6.1 5.7 6.8
2017-Feb-15 23:00N 57°12' E 002°48'10 9.8 200 / 161022.4 6.1 6.1 6.8
2017-Feb-15 22:00N 57°12' E 002°30'7 6.8 190 / 191022.4 6.1 5.8 7.0
2017-Feb-15 21:00N 57°18' E 002°24'7 6.8 190 / 191022.8 6.2 5.8 7.0
2017-Feb-15 20:00N 57°24' E 002°30'1212.4 170 / 191023.3 6.4 6.1 7.1
2017-Feb-15 19:00N 57°36' E 002°36'1312.9 180 / 161023.8 7.2 6.2 6.9
2017-Feb-15 18:00N 57°36' E 002°12'6 6.4 180 / 141024.0 7.3 6.3 7.4
2017-Feb-15 17:00N 57°36' E 002°00'10 9.6 190 / 141024.2 7.3 6.4 7.4
2017-Feb-15 16:00N 57°36' E 001°42'1312.9 200 / 141024.3 7.5 6.3 7.7
2017-Feb-15 15:00N 57°36' E 001°18'7 6.8 200 / 141024.6 7.5 6.4 7.7
2017-Feb-15 14:00N 57°30' E 001°12'9 8.8 180 / 161024.8 9.0 6.3 7.7
2017-Feb-15 13:00N 57°36' E 001°00'6 6.4 180 / 141024.9 7.6 6.3 7.8
2017-Feb-15 12:00N 57°36' E 000°48'6 6.0 190 / 161025.3 7.5 6.2 7.5
2017-Feb-15 11:00N 57°30' E 000°48'1212.4 190 / 141026.1 7.6 6.2 7.7
2017-Feb-15 10:00N 57°18' E 000°54'3 3.2 180 / 141026.0 7.6 5.7 7.8
2017-Feb-15 09:00N 57°18' E 001°00'9 4.4 170 / 171026.4 7.5 5.8 7.6
2017-Feb-15 07:00N 57°12' E 001°12'0 0.0 160 / 161026.1 7.3 5.6 7.5
2017-Feb-15 06:00N 57°12' E 001°12'0 0.0 150 / 161026.5 7.2 5.3 7.5
2017-Feb-15 05:00N 57°12' E 001°12'1212.0 160 / 171026.4 7.1 5.2 7.6
2017-Feb-15 04:00N 57°24' E 001°12'6 6.0 160 / 191026.4 6.8 5.0 7.6
2017-Feb-15 03:00N 57°30' E 001°12'1212.0 160 / 171026.5 6.3 4.4 7.6
2017-Feb-15 02:00N 57°42' E 001°12'6 6.0 170 / 191026.9 6.1 4.0 7.7
2017-Feb-15 01:00N 57°48' E 001°12'10 9.6 170 / 191027.1 6.3 3.4 7.7
2017-Feb-15 00:00N 57°48' E 000°54'9 8.8 170 / 211026.9 6.3 3.0 7.9
2017-Feb-14 23:00N 57°54' E 000°42'10 9.6 170 / 211026.8 6.4 2.8 8.0
2017-Feb-14 22:00N 57°54' E 000°24'1413.6 160 / 191027.4 6.1 2.4 8.0
2017-Feb-14 21:00N 58°06' E 000°36'7 6.8 150 / 211027.7 6.0 2.8 8.0
2017-Feb-14 20:00N 58°12' E 000°42'7 6.8 150 / 231027.7 5.9 2.5 8.0
2017-Feb-14 19:00N 58°18' E 000°48'1212.4 140 / 251028.1 5.7 2.7 7.9
2017-Feb-14 18:00N 58°30' E 000°54'1212.4 130 / 251028.8 6.2 2.3 7.8
2017-Feb-14 17:00N 58°42' E 001°00'7 6.8 130 / 231029.4 6.2 2.9 7.7
2017-Feb-14 16:00N 58°48' E 001°06'3 3.1 140 / 211029.8 6.2 3.0 7.6
2017-Feb-14 15:00N 58°48' E 001°00'9 4.7 120 / 211029.6 6.3 2.8 7.6
2017-Feb-14 13:00N 58°48' E 000°42'1212.4 130 / 211031.3 6.5 3.4 7.8
2017-Feb-14 12:00N 59°00' E 000°48'7 6.7 120 / 211032.0 6.1 3.4 7.8
2017-Feb-14 11:00N 59°06' E 000°54'6 6.0 120 / 231032.6 5.8 3.2 7.7
2017-Feb-14 10:00N 59°12' E 000°54'7 6.7 120 / 191032.9 5.3 2.6 7.6
2017-Feb-14 09:00N 59°18' E 001°00'6 6.1 120 / 191033.3 5.0 2.6 7.6
2017-Feb-14 08:00N 59°18' E 001°12'0 0.0 110 / 191033.9 4.6 2.2 7.5
2017-Feb-14 07:00N 59°18' E 001°12'3 3.1 130 / 161034.3 4.5 2.1 7.5
2017-Feb-14 06:00N 59°18' E 001°18'7 6.7 150 / 161034.3 4.7 2.5 7.5
2017-Feb-14 05:00N 59°12' E 001°12'7 6.7 130 / 161035.0 4.5 1.8 7.5
2017-Feb-14 04:00N 59°06' E 001°18'1212.0 130 / 141034.9 4.6 1.9 7.5
2017-Feb-14 03:00N 58°54' E 001°18'6 6.0 130 / 161035.1 4.5 2.0 7.6
2017-Feb-14 02:00N 58°48' E 001°18'18 9.1 130 / 171035.2 4.4 1.8 7.6
2017-Feb-14 00:00N 58°30' E 001°24'6 6.0 130 / 171035.9 4.5 2.1 7.8
2017-Feb-13 23:00N 58°24' E 001°24'1312.6 140 / 171035.8 4.4 1.7 7.8
2017-Feb-13 22:00N 58°24' E 001°48'3 3.1 120 / 191036.7 4.5 1.8 7.5
2017-Feb-13 21:00N 58°24' E 001°54'9 9.4 120 / 161037.2 3.9 1.0 7.3
2017-Feb-13 20:00N 58°24' E 002°12'9 9.4 120 / 141037.5 3.9 0.9 7.1
2017-Feb-13 19:00N 58°24' E 002°30'7 6.8 110 / 141037.9 4.0 0.9 7.0
2017-Feb-13 18:00N 58°30' E 002°36'1212.0 100 / 141038.1 4.1 1.0 7.3
2017-Feb-13 17:00N 58°42' E 002°36'14 6.9 120 / 81038.8 3.4-0.0 7.5
2017-Feb-13 15:00N 58°48' E 003°00'1111.1 120 / 121039.3 2.7-0.9 7.5
2017-Feb-13 14:00N 58°54' E 003°18'6 6.0 110 / 121039.4 2.8-0.6 7.6
2017-Feb-13 13:00N 59°00' E 003°18'3 3.1 110 / 101039.4 3.3-0.5 8.0
2017-Feb-13 12:00N 59°00' E 003°12'7 6.7 110 / 101039.6 3.6-1.2 8.0
2017-Feb-13 11:00N 59°06' E 003°06'6 6.0 120 / 61040.3 3.5-1.1 8.2
2017-Feb-13 10:00N 59°12' E 003°06'1212.3 120 / 61040.0 3.2-1.4 8.0
2017-Feb-13 09:00N 59°12' E 002°42'9 8.6 100 / 81040.1 3.2-1.2 7.5
2017-Feb-13 08:00N 59°18' E 002°30'0 0.0 130 / 81040.5 3.0-1.7 7.5
2017-Feb-13 07:00N 59°18' E 002°30'0 0.0 130 / 101040.4 3.3-1.3 7.5
2017-Feb-13 06:00N 59°18' E 002°30'1212.4 130 / 81040.4 2.7-2.2 7.5
2017-Feb-13 05:00N 59°06' E 002°36'7 6.7 120 / 101040.6 2.5-2.5 7.5
2017-Feb-13 04:00N 59°00' E 002°42'1212.0 120 / 141040.9 2.3-2.4 7.5
2017-Feb-13 03:00N 58°48' E 002°42'7 6.8 110 / 121040.8 2.1-3.0 7.4
2017-Feb-13 02:00N 58°42' E 002°48'9 9.4 110 / 141041.0 2.3-2.8 7.5
2017-Feb-13 01:00N 58°42' E 003°06'7 6.8 120 / 141041.2 1.8-3.6 7.6
2017-Feb-13 00:00N 58°48' E 003°12'6 6.0 100 / 121041.4 2.4-3.0 7.5
2017-Feb-12 23:00N 58°54' E 003°12'4210.5 100 / 121041.4 2.8-2.9 7.6
2017-Feb-12 19:00N 59°36' E 003°12'6 6.0 200 / 101041.7 3.5-2.3 8.1
2017-Feb-12 18:00N 59°42' E 003°12'6 6.0 190 / 121041.6 3.8-1.4 8.2
2017-Feb-12 17:00N 59°48' E 003°12'   200 / 101041.5 4.2-0.8 8.3

Dump ship's entire track history